Time;durP1;ratioP1;P1;durP2;ratioP2;P2;SDS_P1;SDS_P2;PMS_P1;PMS_P2;Temp;Humidity;BMP_temperature;BMP_pressure;BME280_temperature;BME280_humidity;BME280_pressure;Samples;Min_cycle;Max_cycle;Signal;HPM_P1;HPM_P2
2023/01/11 00:01:15;;;;;;;1.42;0.60;;;;;;;18.65;45.13;100605.66;4999340;28;20034;-68
2023/01/11 00:03:41;;;;;;;3.63;0.70;;;;;;;18.74;44.79;100625.09;4990045;28;20049;-69
2023/01/11 00:06:07;;;;;;;1.75;0.70;;;;;;;18.76;44.92;100625.84;4995520;28;20467;-67
2023/01/11 00:08:32;;;;;;;2.60;0.73;;;;;;;18.74;45.11;100622.47;4990448;28;20037;-67
2023/01/11 00:10:57;;;;;;;2.03;0.75;;;;;;;18.71;45.23;100615.69;4991898;28;20113;-68
2023/01/11 00:13:23;;;;;;;1.70;0.60;;;;;;;18.73;44.98;100632.22;4993812;28;20141;-67
2023/01/11 00:15:48;;;;;;;1.92;0.70;;;;;;;18.73;45.03;100616.38;4992362;28;20030;-67
2023/01/11 00:18:13;;;;;;;2.65;0.70;;;;;;;18.72;45.12;100614.69;4994473;28;20087;-67
2023/01/11 00:20:40;;;;;;;1.83;0.75;;;;;;;18.68;44.99;100610.66;4988987;28;20034;-69
2023/01/11 00:23:05;;;;;;;1.17;0.60;;;;;;;18.67;45.14;100608.97;4986981;28;20068;-67
2023/01/11 00:25:31;;;;;;;2.10;0.80;;;;;;;18.68;45.07;100603.56;4999150;28;20450;-67
2023/01/11 00:27:56;;;;;;;1.10;0.60;;;;;;;18.65;45.12;100603.84;4993690;28;20041;-67
2023/01/11 00:30:22;;;;;;;1.52;0.70;;;;;;;18.63;45.18;100597.84;5003574;28;21090;-68
2023/01/11 00:32:47;;;;;;;2.50;0.80;;;;;;;18.64;45.06;100598.69;4999900;28;20034;-68
2023/01/11 00:35:12;;;;;;;2.03;0.70;;;;;;;18.64;45.33;100599.53;4986171;28;20096;-73
2023/01/11 00:37:38;;;;;;;1.85;0.60;;;;;;;18.64;45.22;100599.53;4993714;28;20455;-68
2023/01/11 00:40:04;;;;;;;1.85;0.70;;;;;;;18.63;45.28;100594.41;4986671;28;20472;-68
2023/01/11 00:47:59;;;;;;;1.90;0.70;;;;;;;18.61;45.23;100591.88;5000711;28;20080;-67
2023/01/11 00:50:28;;;;;;;2.33;0.80;;;;;;;18.61;45.28;100594.53;5000033;28;20030;-67
2023/01/11 00:52:53;;;;;;;2.42;0.80;;;;;;;18.60;45.51;100595.50;4992951;28;20125;-70
2023/01/11 00:55:19;;;;;;;1.67;0.60;;;;;;;18.57;45.28;100579.91;4997345;28;21064;-69
2023/01/11 00:57:44;;;;;;;1.90;0.80;;;;;;;18.60;45.58;100584.09;4993211;28;20026;-71
2023/01/11 01:00:10;;;;;;;1.95;0.80;;;;;;;18.59;45.36;100592.97;4991795;28;20518;-67
2023/01/11 01:02:35;;;;;;;1.95;0.70;;;;;;;18.57;45.40;100587.84;5003534;28;20030;-68
2023/01/11 01:05:00;;;;;;;1.67;0.70;;;;;;;18.55;45.47;100573.09;4988822;28;20034;-67
2023/01/11 01:07:26;;;;;;;1.42;0.60;;;;;;;18.55;45.62;100576.59;4988008;28;20038;-69
2023/01/11 01:09:51;;;;;;;2.10;0.60;;;;;;;18.55;45.54;100575.72;4994888;28;20394;-70
2023/01/11 01:15:00;;;;;;;2.15;0.68;;;;;;;18.54;45.68;100580.19;4985749;28;20266;-68
2023/01/11 01:17:26;;;;;;;1.58;0.60;;;;;;;18.54;45.75;100582.00;4989457;28;20034;-67
2023/01/11 01:19:51;;;;;;;1.52;0.70;;;;;;;18.56;45.87;100588.78;4987471;28;20073;-67
2023/01/11 01:22:16;;;;;;;2.30;0.80;;;;;;;18.54;45.72;100589.91;4988842;28;20131;-67
2023/01/11 01:24:42;;;;;;;2.25;0.80;;;;;;;18.55;45.88;100586.28;4990267;28;20034;-68
2023/01/11 01:27:07;;;;;;;1.23;0.60;;;;;;;18.54;45.85;100588.09;4999464;28;20044;-68
2023/01/11 01:29:32;;;;;;;1.55;0.70;;;;;;;18.51;45.60;100591.00;5001039;28;20026;-68
2023/01/11 01:31:57;;;;;;;1.95;0.73;;;;;;;18.52;45.75;100587.41;4990021;28;20030;-71
2023/01/11 01:34:23;;;;;;;1.45;0.60;;;;;;;18.48;45.95;100583.34;4995292;28;20054;-72
2023/01/11 01:36:48;;;;;;;1.73;0.70;;;;;;;18.49;45.78;100577.13;4983362;28;20443;-71
2023/01/11 01:39:13;;;;;;;1.17;0.55;;;;;;;18.48;45.83;100580.72;5001623;28;20045;-68
2023/01/11 01:41:39;;;;;;;1.50;0.60;;;;;;;18.51;46.00;100584.91;4986371;28;20030;-68
2023/01/11 01:44:43;;;;;;;2.00;0.70;;;;;;;18.51;46.04;100584.91;4995626;28;20030;-70
2023/01/11 01:47:09;;;;;;;1.25;0.60;;;;;;;18.47;45.87;100585.16;4991928;28;20413;-67
2023/01/11 01:49:34;;;;;;;1.40;0.60;;;;;;;18.47;45.96;100585.16;4992643;28;20487;-72
2023/01/11 01:52:00;;;;;;;0.88;0.45;;;;;;;18.45;45.77;100576.56;5000954;28;20026;-71
2023/01/11 01:54:34;;;;;;;1.35;0.60;;;;;;;18.46;46.05;100575.56;4994464;28;20503;-70
2023/01/11 01:57:04;;;;;;;0.88;0.50;;;;;;;18.48;45.96;100575.44;4983268;28;20033;-71
2023/01/11 01:59:31;;;;;;;1.23;0.60;;;;;;;18.48;46.14;100578.06;4987145;28;20042;-67
2023/01/11 02:01:57;;;;;;;1.77;0.60;;;;;;;18.45;46.02;100573.91;4997144;28;20030;-67
2023/01/11 02:04:26;;;;;;;1.52;0.50;;;;;;;18.47;45.87;100581.69;4996552;28;20049;-71
2023/01/11 02:06:58;;;;;;;1.88;0.70;;;;;;;18.43;46.08;100572.38;4986713;28;20049;-71
2023/01/11 02:09:40;;;;;;;1.85;0.60;;;;;;;18.46;46.14;100580.03;4986852;28;20188;-67
2023/01/11 02:12:06;;;;;;;1.77;0.70;;;;;;;18.46;45.95;100580.84;4995125;28;20038;-68
2023/01/11 02:14:34;;;;;;;1.60;0.60;;;;;;;18.44;46.05;100577.50;5001469;28;20026;-66
2023/01/11 02:16:59;;;;;;;2.50;0.70;;;;;;;18.45;46.14;100584.47;4990897;28;20034;-71
2023/01/11 02:19:53;;;;;;;1.20;0.68;;;;;;;18.46;46.35;100580.84;4982758;28;20042;-68
2023/01/11 02:22:37;;;;;;;2.60;0.73;;;;;;;18.46;46.15;100585.31;4989228;28;20034;-67
2023/01/11 02:25:33;;;;;;;1.17;0.68;;;;;;;18.44;46.24;100582.78;4985759;28;20400;-71
2023/01/11 02:28:31;;;;;;;1.17;0.60;;;;;;;18.45;46.17;100578.34;4992503;28;20038;-71
2023/01/11 02:31:09;;;;;;;2.60;0.70;;;;;;;18.44;46.38;100582.78;4985563;28;20046;-68
2023/01/11 02:34:02;;;;;;;1.58;0.57;;;;;;;18.44;46.51;100569.59;4982683;28;20038;-72
2023/01/11 02:36:43;;;;;;;2.03;0.65;;;;;;;18.43;46.37;100570.56;4985455;28;20041;-69
2023/01/11 02:39:22;;;;;;;1.13;0.50;;;;;;;18.41;46.56;100564.59;4995809;28;20050;-72
2023/01/11 02:45:02;;;;;;;1.10;0.60;;;;;;;18.41;46.41;100567.22;4989659;28;20045;-67
2023/01/11 02:47:56;;;;;;;2.20;0.70;;;;;;;18.41;46.35;100559.31;4996249;28;20088;-67
2023/01/11 02:50:31;;;;;;;1.20;0.65;;;;;;;18.40;46.39;100562.06;4986361;28;20046;-67
2023/01/11 02:53:03;;;;;;;1.60;0.60;;;;;;;18.40;46.49;100562.91;5000537;28;20450;-70
2023/01/11 02:55:35;;;;;;;1.45;0.50;;;;;;;18.40;46.60;100560.25;4997716;28;20537;-71
2023/01/11 02:58:04;;;;;;;1.73;0.60;;;;;;;18.36;46.59;100548.31;5000790;28;20042;-67
2023/01/11 03:00:30;;;;;;;2.33;0.60;;;;;;;18.37;46.75;100557.91;4993478;28;20038;-67
2023/01/11 03:03:12;;;;;;;0.88;0.60;;;;;;;18.40;46.82;100554.16;4994269;28;20060;-67
2023/01/11 03:05:43;;;;;;;0.93;0.60;;;;;;;18.38;46.69;100554.28;4994957;28;20034;-67
2023/01/11 03:08:32;;;;;;;0.88;0.50;;;;;;;18.38;46.93;100551.66;4991437;28;20037;-68
2023/01/11 03:10:57;;;;;;;0.93;0.47;;;;;;;18.39;46.85;100555.13;4995429;28;20029;-72
2023/01/11 03:14:04;;;;;;;0.97;0.50;;;;;;;18.41;46.94;100547.94;4995249;28;20041;-67
2023/01/11 03:16:55;;;;;;;1.52;0.50;;;;;;;18.40;46.98;100551.53;4968190;28;20061;-68
2023/01/11 03:19:39;;;;;;;1.10;0.47;;;;;;;18.38;46.96;100549.03;4972379;28;20126;-69
2023/01/11 03:22:12;;;;;;;1.40;0.50;;;;;;;18.36;46.90;100555.38;4995184;28;20149;-70
2023/01/11 03:25:22;;;;;;;0.93;0.50;;;;;;;18.37;47.15;100554.44;4994718;28;20173;-69
2023/01/11 03:28:11;;;;;;;2.60;0.50;;;;;;;18.37;47.18;100557.06;4993014;28;20042;-69
2023/01/11 03:30:47;;;;;;;0.60;0.40;;;;;;;18.31;47.20;100551.38;4997386;28;20030;-67
2023/01/11 03:33:23;;;;;;;1.77;0.52;;;;;;;18.30;47.33;100543.59;4995636;28;20084;-69
2023/01/11 03:35:59;;;;;;;1.20;0.50;;;;;;;18.34;47.23;100552.06;4998355;28;20034;-68
2023/01/11 03:38:54;;;;;;;1.25;0.40;;;;;;;18.34;47.37;100552.91;4995876;28;20050;-70
2023/01/11 03:41:24;;;;;;;1.00;0.50;;;;;;;18.33;47.15;100550.41;4992820;28;20046;-68
2023/01/11 03:43:52;;;;;;;1.08;0.40;;;;;;;18.30;46.82;100540.94;4994571;28;20052;-70
2023/01/11 03:46:22;;;;;;;1.45;0.50;;;;;;;18.29;47.17;100542.75;4994464;28;20045;-68
2023/01/11 03:48:56;;;;;;;0.93;0.50;;;;;;;18.27;47.21;100547.31;4994537;28;20038;-73
2023/01/11 03:51:27;;;;;;;0.45;0.40;;;;;;;18.29;46.96;100548.03;4998714;28;20026;-70
2023/01/11 03:53:57;;;;;;;2.00;0.40;;;;;;;18.28;47.06;100545.53;4994697;28;20113;-74
2023/01/11 03:56:28;;;;;;;1.85;0.50;;;;;;;18.28;47.27;100541.06;5000054;28;20030;-68
2023/01/11 03:58:53;;;;;;;0.30;0.30;;;;;;;18.31;47.10;100553.19;4994666;28;20604;-68
2023/01/11 04:01:19;;;;;;;0.80;0.50;;;;;;;18.25;47.35;100548.44;4993339;28;20045;-68
2023/01/11 04:03:44;;;;;;;1.25;0.47;;;;;;;18.31;47.32;100553.19;4996316;28;20037;-67
2023/01/11 04:06:10;;;;;;;1.47;0.63;;;;;;;18.27;47.11;100557.84;4994915;28;20041;-73
2023/01/11 04:08:36;;;;;;;0.50;0.40;;;;;;;18.30;47.40;100556.78;4995462;28;20410;-68
2023/01/11 04:11:03;;;;;;;0.93;0.50;;;;;;;18.28;47.33;100553.44;4997351;28;20125;-68
2023/01/11 04:13:29;;;;;;;0.47;0.40;;;;;;;18.30;47.39;100560.22;4993133;28;20038;-67
2023/01/11 04:15:54;;;;;;;0.55;0.30;;;;;;;18.31;47.42;100561.09;4995549;28;20038;-68
2023/01/11 04:18:20;;;;;;;1.05;0.40;;;;;;;18.28;47.50;100564.00;4990158;28;20065;-68
2023/01/11 04:20:45;;;;;;;0.70;0.50;;;;;;;18.28;47.44;100564.00;4995606;28;20505;-66
2023/01/11 04:23:11;;;;;;;0.88;0.52;;;;;;;18.29;47.63;100573.56;5001954;28;20497;-71
2023/01/11 04:25:36;;;;;;;0.82;0.43;;;;;;;18.28;47.81;100571.91;4992911;28;20046;-67
2023/01/11 04:28:02;;;;;;;1.50;0.50;;;;;;;18.25;47.83;100562.44;4995748;28;20030;-70
2023/01/11 04:30:27;;;;;;;0.70;0.50;;;;;;;18.28;47.71;100570.09;5002255;28;20033;-64
2023/01/11 04:32:52;;;;;;;0.85;0.50;;;;;;;18.26;47.94;100568.53;4994198;28;20108;-65
2023/01/11 04:35:18;;;;;;;0.50;0.30;;;;;;;18.26;47.79;100576.44;4995167;28;20034;-66
2023/01/11 04:37:43;;;;;;;1.00;0.40;;;;;;;18.26;47.61;100577.31;4997982;28;20065;-68
2023/01/11 04:40:09;;;;;;;0.82;0.40;;;;;;;18.24;47.61;100573.94;4996576;28;20149;-66
2023/01/11 04:42:35;;;;;;;0.68;0.40;;;;;;;18.23;47.71;100585.47;4995418;28;20038;-71
2023/01/11 04:45:04;;;;;;;5.78;0.70;;;;;;;18.25;47.84;100590.63;4996118;28;20041;-68
2023/01/11 04:47:29;;;;;;;0.98;0.50;;;;;;;18.24;47.75;100595.03;4986694;28;20038;-70
2023/01/11 04:49:55;;;;;;;1.35;0.60;;;;;;;18.23;47.63;100590.75;4994583;28;20053;-66
2023/01/11 04:52:20;;;;;;;1.17;0.40;;;;;;;18.22;47.84;100590.88;4993367;28;20042;-73
2023/01/11 04:54:47;;;;;;;0.77;0.40;;;;;;;18.23;47.68;100603.94;4988610;28;20033;-72
2023/01/11 04:57:14;;;;;;;0.30;0.30;;;;;;;18.24;47.72;100602.97;4990416;28;20030;-72
2023/01/11 04:59:40;;;;;;;1.02;0.40;;;;;;;18.25;47.90;100599.38;4988614;28;20061;-71
2023/01/11 05:02:05;;;;;;;1.45;0.50;;;;;;;18.23;48.17;100592.53;4991017;28;20061;-68
2023/01/11 05:04:31;;;;;;;0.60;0.40;;;;;;;18.26;47.91;100601.06;4982548;28;20117;-68
2023/01/11 05:06:56;;;;;;;2.25;0.50;;;;;;;18.24;48.08;100599.50;5000969;28;20061;-68
2023/01/11 05:09:22;;;;;;;1.65;0.35;;;;;;;18.22;47.90;100599.63;4993001;28;20034;-69
2023/01/11 05:11:47;;;;;;;1.08;0.40;;;;;;;18.24;47.88;100600.31;4990232;28;20075;-68
2023/01/11 05:14:14;;;;;;;0.98;0.40;;;;;;;18.22;48.07;100601.44;4997329;28;20041;-68
2023/01/11 05:16:39;;;;;;;0.80;0.30;;;;;;;18.19;47.93;100594.63;4992070;28;20030;-71
2023/01/11 05:19:05;;;;;;;1.27;0.40;;;;;;;18.21;48.19;100599.75;5001327;28;20505;-66
2023/01/11 05:21:38;;;;;;;0.70;0.40;;;;;;;18.22;48.12;100606.72;4989676;28;20089;-67
2023/01/11 05:24:05;;;;;;;0.65;0.40;;;;;;;18.23;47.93;100616.28;4985425;28;20965;-66
2023/01/11 05:26:33;;;;;;;1.15;0.40;;;;;;;18.19;48.14;100613.06;4994360;28;20093;-67
2023/01/11 05:29:00;;;;;;;0.85;0.50;;;;;;;18.19;48.12;100618.34;4998457;28;20112;-67
2023/01/11 05:31:26;;;;;;;1.35;0.40;;;;;;;18.21;47.94;100616.41;4998182;28;20044;-65
2023/01/11 05:33:52;;;;;;;0.93;0.43;;;;;;;18.21;48.06;100626.97;4983638;28;20057;-68
2023/01/11 05:36:20;;;;;;;0.60;0.40;;;;;;;18.20;47.94;100624.44;4990746;28;20402;-71
2023/01/11 05:38:46;;;;;;;0.40;0.40;;;;;;;18.21;48.21;100620.84;4995592;28;20054;-67
2023/01/11 05:41:12;;;;;;;0.60;0.40;;;;;;;18.21;48.12;100626.13;5002430;28;20041;-68
2023/01/11 05:46:22;;;;;;;0.52;0.40;;;;;;;18.21;48.29;100632.25;5001375;28;20083;-67
2023/01/11 05:48:47;;;;;;;1.08;0.40;;;;;;;18.17;48.27;100625.56;4982192;28;20509;-69
2023/01/11 05:51:13;;;;;;;1.38;0.50;;;;;;;18.21;48.36;100629.59;5001767;28;20030;-68
2023/01/11 05:53:38;;;;;;;1.02;0.50;;;;;;;18.20;48.16;100625.31;4984739;28;20560;-67
2023/01/11 05:56:03;;;;;;;0.55;0.47;;;;;;;18.21;48.08;100636.69;4992042;28;20203;-71
2023/01/11 05:58:28;;;;;;;0.77;0.45;;;;;;;18.19;48.29;100620.16;4997541;28;20034;-67
2023/01/11 06:00:54;;;;;;;0.82;0.40;;;;;;;18.17;48.11;100635.28;5000830;28;20463;-67
2023/01/11 06:03:21;;;;;;;0.57;0.40;;;;;;;18.15;47.81;100647.75;4990089;28;20037;-66
2023/01/11 06:05:47;;;;;;;0.63;0.40;;;;;;;18.15;48.18;100648.59;4991282;28;20030;-67
2023/01/11 06:08:13;;;;;;;1.05;0.50;;;;;;;18.17;48.14;100651.94;4995694;28;20045;-72
2023/01/11 06:10:38;;;;;;;1.13;0.50;;;;;;;18.18;48.07;100648.31;4996117;28;20034;-68
2023/01/11 06:15:48;;;;;;;0.50;0.40;;;;;;;18.26;48.38;100659.09;4993727;28;20096;-66
2023/01/11 06:18:13;;;;;;;3.28;0.50;;;;;;;18.28;48.24;100658.97;5001127;28;20033;-65
2023/01/11 06:20:39;;;;;;;1.35;0.60;;;;;;;18.35;48.79;100670.63;4993574;28;20038;-67
2023/01/11 06:23:04;;;;;;;0.30;0.30;;;;;;;18.37;48.64;100666.06;5002075;28;20459;-67
2023/01/11 06:25:31;;;;;;;0.60;0.43;;;;;;;18.43;48.24;100672.63;4995747;28;20037;-66
2023/01/11 06:27:58;;;;;;;1.40;0.43;;;;;;;18.48;48.25;100679.22;4994317;28;20043;-65
2023/01/11 06:30:27;;;;;;;1.67;0.63;;;;;;;18.48;48.32;100663.38;4998935;28;20120;-65
2023/01/11 06:32:52;;;;;;;2.40;0.60;;;;;;;18.52;48.08;100671.00;5002263;28;20061;-67
2023/01/11 06:35:17;;;;;;;1.90;0.60;;;;;;;18.56;48.03;100675.88;4993622;28;20026;-68
2023/01/11 06:37:43;;;;;;;1.02;0.50;;;;;;;18.59;47.98;100688.00;4995426;28;20053;-67
2023/01/11 06:40:09;;;;;;;2.78;0.57;;;;;;;18.58;48.09;100704.78;4997545;28;20034;-67
2023/01/11 06:42:34;;;;;;;1.38;0.52;;;;;;;18.63;47.91;100705.25;5001850;28;20045;-66
2023/01/11 06:44:59;;;;;;;3.50;0.60;;;;;;;18.65;47.92;100708.59;4986564;28;20034;-67
2023/01/11 06:47:25;;;;;;;1.98;0.68;;;;;;;18.64;47.75;100707.75;4998998;28;20275;-67
2023/01/11 06:49:50;;;;;;;1.90;0.52;;;;;;;18.62;47.87;100706.22;4994407;28;20091;-67
2023/01/11 06:52:15;;;;;;;1.47;0.50;;;;;;;18.69;47.69;100741.66;4991862;28;20134;-70
2023/01/11 06:54:40;;;;;;;3.03;1.17;;;;;;;18.70;47.95;100745.97;4988048;28;21113;-68
2023/01/11 06:57:06;;;;;;;2.25;0.70;;;;;;;18.68;47.69;100737.38;4999733;28;20287;-69
2023/01/11 06:59:31;;;;;;;2.85;0.70;;;;;;;18.74;47.66;100738.63;4990892;28;20142;-68
2023/01/11 07:01:57;;;;;;;3.08;0.98;;;;;;;18.72;47.75;100725.56;4985090;28;20030;-67
2023/01/11 07:04:23;;;;;;;3.63;0.90;;;;;;;18.76;47.57;100740.19;4986324;28;20058;-66
2023/01/11 07:06:48;;;;;;;2.35;0.60;;;;;;;18.73;47.53;100723.78;4983143;28;20073;-67
2023/01/11 07:09:13;;;;;;;3.72;0.90;;;;;;;18.77;47.67;100728.66;4984006;28;20463;-68
2023/01/11 07:11:39;;;;;;;2.53;0.80;;;;;;;18.80;47.58;100741.59;4985122;28;20037;-67
2023/01/11 07:14:05;;;;;;;2.67;0.68;;;;;;;18.81;47.46;100750.34;4989501;28;20087;-67
2023/01/11 07:16:30;;;;;;;2.63;0.77;;;;;;;18.80;47.43;100751.31;4991900;28;20505;-71
2023/01/11 07:18:55;;;;;;;3.20;0.80;;;;;;;18.83;47.41;100762.47;4987879;28;20864;-67
2023/01/11 07:21:21;;;;;;;2.78;0.80;;;;;;;18.85;47.45;100778.22;4985210;28;20088;-67
2023/01/11 07:23:47;;;;;;;2.72;1.00;;;;;;;18.87;47.34;100778.03;4982180;28;20043;-68
2023/01/11 07:26:15;;;;;;;3.22;0.95;;;;;;;18.87;47.41;100778.03;4999096;28;20042;-68
2023/01/11 07:28:41;;;;;;;2.10;0.68;;;;;;;18.87;47.56;100783.31;4983738;28;20054;-67
2023/01/11 07:31:06;;;;;;;3.17;0.80;;;;;;;18.83;47.40;100777.44;4991814;28;20060;-71
2023/01/11 07:33:31;;;;;;;2.73;0.80;;;;;;;18.89;47.49;100789.34;4988101;28;20121;-67
2023/01/11 07:35:59;;;;;;;4.03;1.00;;;;;;;18.90;47.43;100777.78;4999464;28;20888;-68
2023/01/11 07:38:25;;;;;;;3.00;1.00;;;;;;;18.87;47.31;100788.59;5000201;28;20302;-68
2023/01/11 07:40:50;;;;;;;3.53;0.90;;;;;;;18.89;47.23;100794.63;4999209;28;20534;-68
2023/01/11 07:43:18;;;;;;;4.55;1.08;;;;;;;18.87;46.93;100801.81;4984673;28;20038;-69
2023/01/11 07:45:47;;;;;;;5.15;1.00;;;;;;;18.89;47.16;100808.66;4988095;28;20040;-68
2023/01/11 07:48:15;;;;;;;5.88;1.20;;;;;;;18.88;47.16;100804.31;5004442;28;20095;-68
2023/01/11 07:50:41;;;;;;;3.75;0.98;;;;;;;18.91;47.20;100819.91;5003973;28;20064;-68
2023/01/11 07:53:07;;;;;;;5.53;1.00;;;;;;;18.92;47.07;100826.06;4987717;28;20037;-68
2023/01/11 07:55:33;;;;;;;5.22;1.15;;;;;;;18.91;47.03;100825.19;4983425;28;20106;-69
2023/01/11 07:57:58;;;;;;;3.90;1.10;;;;;;;18.87;47.14;100826.44;4996014;28;20050;-71
2023/01/11 08:00:24;;;;;;;4.40;1.10;;;;;;;18.91;46.78;100835.75;4999405;28;20057;-68
2023/01/11 08:02:51;;;;;;;5.88;1.10;;;;;;;18.81;46.92;100822.47;4986298;28;20034;-67
2023/01/11 08:05:18;;;;;;;4.93;1.20;;;;;;;18.89;47.00;100836.88;4995802;28;20489;-67
2023/01/11 08:07:43;;;;;;;5.35;1.30;;;;;;;18.88;46.87;100838.66;5002867;28;20037;-68
2023/01/11 08:10:09;;;;;;;4.25;1.35;;;;;;;18.91;46.86;100846.31;4998744;28;20034;-68
2023/01/11 08:15:24;;;;;;;4.80;1.13;;;;;;;18.87;46.90;100844.91;4986271;28;20053;-70
2023/01/11 08:17:50;;;;;;;4.75;1.10;;;;;;;18.90;46.87;100871.06;5002561;28;20435;-68
2023/01/11 08:20:15;;;;;;;6.10;1.30;;;;;;;18.84;46.85;100863.66;4993669;28;20137;-71
2023/01/11 08:22:40;;;;;;;4.97;1.10;;;;;;;18.84;47.38;100876.84;4986498;28;20081;-68
2023/01/11 08:25:06;;;;;;;5.43;1.33;;;;;;;18.89;47.34;100897.59;4995342;28;20476;-66
2023/01/11 08:27:31;;;;;;;5.25;1.40;;;;;;;18.88;47.34;100912.59;4992359;28;20038;-69
2023/01/11 08:29:57;;;;;;;6.22;1.60;;;;;;;18.83;47.58;100906.81;5003121;28;20554;-68
2023/01/11 08:32:22;;;;;;;5.28;1.42;;;;;;;18.89;47.83;100914.28;4991916;28;20064;-66
2023/01/11 08:34:47;;;;;;;6.10;1.70;;;;;;;18.89;47.57;100914.28;4983773;28;20034;-68
2023/01/11 08:37:13;;;;;;;5.13;1.60;;;;;;;18.88;47.59;100914.41;4983843;28;20041;-69
2023/01/11 08:39:39;;;;;;;5.85;1.30;;;;;;;18.87;47.55;100928.56;4983504;28;20941;-68
2023/01/11 08:42:04;;;;;;;4.45;1.40;;;;;;;18.85;47.71;100918.16;5001210;28;20041;-68
2023/01/11 08:44:33;;;;;;;5.88;1.55;;;;;;;18.89;47.75;100929.28;4994414;28;20040;-68
2023/01/11 08:46:58;;;;;;;5.68;1.17;;;;;;;18.89;47.91;100929.28;4991351;28;20049;-67
2023/01/11 08:49:23;;;;;;;4.97;1.23;;;;;;;18.89;47.88;100934.56;4996983;28;20046;-67
2023/01/11 08:51:51;;;;;;;4.70;1.40;;;;;;;18.88;48.05;100943.44;4997718;28;20034;-69
2023/01/11 08:54:16;;;;;;;6.50;1.67;;;;;;;18.87;48.21;100941.75;4991059;28;20026;-67
2023/01/11 08:56:42;;;;;;;6.85;1.60;;;;;;;18.89;48.16;100943.31;4994820;28;20374;-70
2023/01/11 08:59:09;;;;;;;6.45;1.55;;;;;;;18.83;48.37;100949.94;4988958;28;20048;-70
2023/01/11 09:01:34;;;;;;;5.07;1.45;;;;;;;18.90;48.47;100968.78;4988634;28;20568;-70
2023/01/11 09:03:59;;;;;;;5.75;1.40;;;;;;;18.88;48.26;100961.94;4985004;28;20070;-70
2023/01/11 09:06:25;;;;;;;6.60;1.50;;;;;;;18.82;48.17;100956.16;4989490;28;20038;-67
2023/01/11 09:08:50;;;;;;;6.20;1.38;;;;;;;18.86;48.20;100967.34;5002356;28;20471;-69
2023/01/11 09:14:00;;;;;;;7.90;1.70;;;;;;;18.91;48.23;100973.06;4994317;28;20045;-69
2023/01/11 09:16:26;;;;;;;7.18;1.60;;;;;;;18.91;48.05;100974.88;4993176;28;20033;-69
2023/01/11 09:18:51;;;;;;;6.90;1.98;;;;;;;18.91;48.03;100981.00;4996378;28;20088;-68
2023/01/11 09:21:16;;;;;;;6.93;1.42;;;;;;;18.92;48.22;100977.41;4983108;28;20034;-68
2023/01/11 09:23:43;;;;;;;6.65;1.30;;;;;;;18.91;48.03;100983.63;4985640;28;20032;-67
2023/01/11 09:26:10;;;;;;;9.10;2.25;;;;;;;18.91;48.00;100982.81;5000852;28;20106;-67
2023/01/11 09:28:35;;;;;;;9.07;1.70;;;;;;;18.93;48.16;100983.50;4986244;28;20056;-68
2023/01/11 09:31:01;;;;;;;4.68;1.30;;;;;;;18.95;47.81;100984.25;4993876;28;20526;-69
2023/01/11 09:33:26;;;;;;;5.35;1.42;;;;;;;18.91;47.80;100981.00;5002224;28;20041;-69
2023/01/11 09:35:51;;;;;;;5.90;1.63;;;;;;;18.95;47.68;100998.28;4994786;28;20042;-68
2023/01/11 09:38:17;;;;;;;6.15;1.52;;;;;;;18.94;47.67;101001.88;4996371;28;20284;-73
2023/01/11 09:40:58;;;;;;;7.45;1.48;;;;;;;18.94;47.71;101009.78;4983640;28;20038;-67
2023/01/11 09:43:26;;;;;;;8.45;1.95;;;;;;;18.90;47.53;100999.59;4982545;28;20034;-68
2023/01/11 09:45:55;;;;;;;8.20;1.48;;;;;;;18.89;47.62;100995.31;4982493;28;20072;-70
2023/01/11 09:48:27;;;;;;;8.18;1.45;;;;;;;18.94;47.51;101004.50;4992519;28;20040;-68
2023/01/11 09:50:54;;;;;;;6.88;1.50;;;;;;;18.97;47.44;101006.06;4997246;28;20096;-68
2023/01/11 09:53:35;;;;;;;7.68;1.85;;;;;;;18.98;47.55;101013.88;5001071;28;20038;-69
2023/01/11 09:56:04;;;;;;;6.80;1.40;;;;;;;18.97;47.07;101012.19;4995049;28;20069;-67
2023/01/11 09:58:49;;;;;;;8.05;1.50;;;;;;;18.99;47.26;101022.63;4989702;28;20492;-68
2023/01/11 10:01:35;;;;;;;5.97;1.27;;;;;;;19.01;47.00;101023.34;4994458;28;20117;-69
2023/01/11 10:04:31;;;;;;;6.57;1.52;;;;;;;18.96;47.53;101028.16;4996276;28;20128;-68
2023/01/11 10:07:13;;;;;;;7.68;1.58;;;;;;;18.98;47.36;101034.16;4988918;28;20046;-69
2023/01/11 10:10:05;;;;;;;6.20;1.58;;;;;;;18.98;47.23;101024.44;4980658;28;20034;-69
2023/01/11 10:12:56;;;;;;;6.30;1.30;;;;;;;18.97;46.95;101028.03;4984440;28;20049;-69
2023/01/11 10:15:34;;;;;;;5.75;1.50;;;;;;;18.91;46.98;101019.78;5001301;28;20112;-69
2023/01/11 10:18:29;;;;;;;5.82;1.58;;;;;;;18.94;46.89;101030.09;4988916;28;20501;-70
2023/01/11 10:21:15;;;;;;;6.78;1.45;;;;;;;18.92;47.03;101037.31;4982187;28;20467;-69
2023/01/11 10:24:05;;;;;;;6.30;1.75;;;;;;;18.88;46.94;101031.41;4980725;28;20100;-71
2023/01/11 10:26:38;;;;;;;7.10;1.65;;;;;;;18.89;46.95;101032.28;4986439;28;20491;-68
2023/01/11 10:29:29;;;;;;;6.45;1.40;;;;;;;18.84;46.96;101022.91;4983668;28;20037;-68
2023/01/11 10:42:32;;;;;;;8.32;2.20;;;;;;;18.85;46.76;101031.69;4988271;28;20096;-69
2023/01/11 10:45:12;;;;;;;5.90;1.33;;;;;;;18.85;46.89;101034.34;4990473;28;20474;-69
2023/01/11 10:48:04;;;;;;;7.80;1.80;;;;;;;18.89;46.98;101042.84;4989388;28;20046;-68
2023/01/11 10:50:40;;;;;;;5.95;1.50;;;;;;;18.83;46.82;101028.28;4988686;28;20042;-70
2023/01/11 10:53:11;;;;;;;5.63;1.50;;;;;;;18.84;47.12;101035.28;5001225;28;20505;-70
2023/01/11 10:56:26;;;;;;;7.95;1.67;;;;;;;18.84;46.92;101036.13;4998416;28;20038;-69
2023/01/11 10:59:03;;;;;;;6.65;1.50;;;;;;;18.82;46.79;101026.63;4979070;28;20050;-70
2023/01/11 11:01:45;;;;;;;9.90;2.05;;;;;;;18.82;46.72;101019.53;4998669;28;20434;-70
2023/01/11 11:04:22;;;;;;;4.35;1.35;;;;;;;18.72;46.73;101015.94;4990028;28;20038;-70
2023/01/11 11:06:56;;;;;;;7.20;1.40;;;;;;;18.79;46.74;101027.72;4993455;28;20039;-70
2023/01/11 11:09:30;;;;;;;5.50;1.65;;;;;;;18.79;46.74;101026.88;5004870;28;20464;-68
2023/01/11 11:12:13;;;;;;;5.47;1.48;;;;;;;18.77;46.66;101028.78;4990778;28;20030;-69
2023/01/11 11:14:57;;;;;;;8.88;1.90;;;;;;;18.78;46.42;101033.13;4998254;28;20513;-69
2023/01/11 11:17:31;;;;;;;8.75;1.80;;;;;;;18.75;46.58;101036.00;4994953;28;20143;-68
2023/01/11 11:19:57;;;;;;;7.15;1.90;;;;;;;18.77;46.59;101045.47;5009179;28;20038;-69
2023/01/11 11:22:23;;;;;;;4.95;1.42;;;;;;;18.71;46.65;101021.34;4997454;28;20079;-71
2023/01/11 11:24:54;;;;;;;4.30;1.27;;;;;;;18.73;46.58;101030.84;4989219;28;20042;-69
2023/01/11 11:27:40;;;;;;;5.75;1.95;;;;;;;18.78;46.49;101030.47;4985116;28;20038;-69
2023/01/11 11:30:10;;;;;;;6.60;1.70;;;;;;;18.75;46.51;101026.25;4984927;28;20026;-69
2023/01/11 11:32:38;;;;;;;5.93;1.77;;;;;;;18.78;46.24;101030.47;4994630;28;20041;-71
2023/01/11 11:35:06;;;;;;;5.60;1.25;;;;;;;18.78;46.08;101036.59;4987007;28;20438;-69
2023/01/11 11:37:37;;;;;;;5.88;1.25;;;;;;;18.77;46.40;101034.06;4984511;28;20122;-67
2023/01/11 11:40:03;;;;;;;5.70;1.52;;;;;;;18.84;46.48;101045.84;4984769;28;20065;-67
2023/01/11 11:42:28;;;;;;;7.60;1.70;;;;;;;18.83;46.61;101045.00;4984880;28;20034;-67
2023/01/11 11:45:13;;;;;;;7.28;1.98;;;;;;;18.83;46.70;101044.13;4989863;28;20034;-69
2023/01/11 11:47:38;;;;;;;;;;;;;;;18.93;46.71;101058.31;4990196;28;20052;-66
2023/01/11 11:50:24;;;;;;;6.70;1.27;;;;;;;18.93;46.48;101044.25;4994065;28;19940;-68
2023/01/11 11:52:53;;;;;;;6.13;1.50;;;;;;;18.94;46.26;101051.22;4986869;28;20295;-70
2023/01/11 11:55:29;;;;;;;5.90;1.55;;;;;;;18.94;46.29;101051.22;4997930;28;20042;-69
2023/01/11 11:57:57;;;;;;;6.97;1.40;;;;;;;18.94;46.38;101054.69;4993460;28;20070;-70
2023/01/11 12:00:26;;;;;;;9.60;1.45;;;;;;;18.92;46.10;101058.44;4985388;28;20041;-70
2023/01/11 12:03:03;;;;;;;7.25;1.67;;;;;;;18.97;46.18;101061.53;4997155;28;20033;-69
2023/01/11 12:05:28;;;;;;;7.18;1.55;;;;;;;19.01;45.86;101055.88;4993303;28;20041;-68
2023/01/11 12:07:55;;;;;;;6.78;1.77;;;;;;;18.95;46.33;101040.53;4996633;28;20037;-71
2023/01/11 12:10:25;;;;;;;12.02;1.95;;;;;;;18.95;46.29;101044.97;4995486;28;20034;-68